Aérodrome :
LOGIN :

S'inscrire | Disclaimer

   EN    FR    IT 

 










Légende :    VFR   VFR Marginal   IFR   IFR Intensif   IFR Très Intensif
Visi : 
Plafond : 
>= 8 km
>= 3000ft
5 à 8 km
1000 à 3000 ft
1500m à 5 km
500 à 1000 ft
800 à 1500m
200 à 500 ft
< 800m
< 200 ft
Symboles :   Orages  Brouillard  Fortes neiges  Fortes précipitations  Vent > 20 kt
SIGMETs :   Divers  Orages  Givrage  Turbulence  Onde Orograph.  Cendres Volcan.






- Altitude de l'aérodrome : 325 ft
- Code IATA : BES


LFRB - Brest

DERNIER METAR :
  • 292300Z AUTO 31007KT 9999 BKN008 OVC012 13/12 Q1015 TEMPO BKN012

METARs EXPIRÉS :
  • 292230Z AUTO 31008KT 9999 BKN011 OVC034 13/11 Q1015 TEMPO BKN008
  • 292200Z AUTO 29006KT 260V330 9999 BKN012 BKN020 OVC033 13/12 Q1015 NOSIG
  • 292130Z AUTO 28005KT 240V310 9999 BKN011 OVC035 13/11 Q1015 NOSIG
  • 292100Z AUTO 29005KT 260V320 9999 FEW013 SCT022 BKN027 13/11 Q1015 TEMPO BKN012
  • 292030Z AUTO 31008KT 9999 BKN013 BKN018 BKN036 13/11 Q1015 NOSIG
  • 292000Z AUTO 31008KT 270V330 9999 SCT012 BKN022 BKN240 13/11 Q1015 TEMPO BKN012
  • 291930Z AUTO 31008KT 9999 BKN014 BKN022 OVC210 14/11 Q1014 NOSIG
  • 291900Z AUTO 31010KT 9999 FEW015 BKN020 BKN031 14/11 Q1014 TEMPO BKN012
  • 291830Z AUTO 31009KT 280V350 9999 SCT036 14/11 Q1014 TEMPO BKN012

TAF TAF LFRB
Valide du 29 à 18h jusqu'au 31 à 00h UTC


291700Z 2918/3024 32010KT 9999 SCT015 BKN025
TEMPO 2918/3006 BKN012
PROB40
TEMPO 3000/3006 BKN008
TEMPO 3006/3020 33015G25KT
PROB30
TEMPO 3006/3010 4000 SHRA BKN014 SCT020TCU
ATIS : +33 2 98 32 02 71



MET'MAP, la Météo Aéronautique d'un coup d'oeil ! - Copyright ORBIFLY Décembre 2007 - Disclaimer

ORBIFLY MET'MAP TEAM :

Programmation & Développement : Alexandra Zaïnal
Sur une idée originale de : Baudouin d'Aumeries
Soutien technique & logistique : Manuel Goepfert
Assistance : Marc-Olivier Méhu




SOURCES & CREDITS :

   NOAA